sensor_id;sensor_type;location;lat;lon;timestamp;P1;durP1;ratioP1;P2;durP2;ratioP2
22223;SDS011;11281;52.194;21.006;2023-05-13T00:00:30;18.60;;;9.48;;
22223;SDS011;11281;52.194;21.006;2023-05-13T00:04:31;16.65;;;8.70;;
22223;SDS011;11281;52.194;21.006;2023-05-13T00:08:33;15.85;;;9.68;;
22223;SDS011;11281;52.194;21.006;2023-05-13T00:12:35;18.67;;;8.48;;
22223;SDS011;11281;52.194;21.006;2023-05-13T00:16:36;13.90;;;7.85;;
22223;SDS011;11281;52.194;21.006;2023-05-13T00:20:38;10.13;;;7.22;;
22223;SDS011;11281;52.194;21.006;2023-05-13T00:24:39;10.82;;;7.93;;
22223;SDS011;11281;52.194;21.006;2023-05-13T00:28:40;14.10;;;7.45;;
22223;SDS011;11281;52.194;21.006;2023-05-13T00:32:41;12.63;;;7.07;;
22223;SDS011;11281;52.194;21.006;2023-05-13T00:36:43;15.30;;;7.75;;
22223;SDS011;11281;52.194;21.006;2023-05-13T00:40:45;14.48;;;7.05;;
22223;SDS011;11281;52.194;21.006;2023-05-13T00:44:47;13.70;;;7.30;;
22223;SDS011;11281;52.194;21.006;2023-05-13T00:48:49;13.77;;;8.07;;
22223;SDS011;11281;52.194;21.006;2023-05-13T00:52:51;12.45;;;6.93;;
22223;SDS011;11281;52.194;21.006;2023-05-13T00:56:54;9.55;;;6.72;;
22223;SDS011;11281;52.194;21.006;2023-05-13T01:01:01;8.52;;;6.53;;
22223;SDS011;11281;52.194;21.006;2023-05-13T01:05:17;9.40;;;7.25;;
22223;SDS011;11281;52.194;21.006;2023-05-13T01:09:47;13.38;;;7.35;;
22223;SDS011;11281;52.194;21.006;2023-05-13T01:14:15;9.37;;;6.20;;
22223;SDS011;11281;52.194;21.006;2023-05-13T01:18:30;10.65;;;6.78;;
22223;SDS011;11281;52.194;21.006;2023-05-13T01:22:37;11.75;;;6.57;;
22223;SDS011;11281;52.194;21.006;2023-05-13T01:26:38;10.50;;;6.90;;
22223;SDS011;11281;52.194;21.006;2023-05-13T01:30:39;11.40;;;7.10;;
22223;SDS011;11281;52.194;21.006;2023-05-13T01:34:40;8.43;;;7.28;;
22223;SDS011;11281;52.194;21.006;2023-05-13T01:38:43;11.13;;;6.65;;
22223;SDS011;11281;52.194;21.006;2023-05-13T01:42:45;11.68;;;7.22;;
22223;SDS011;11281;52.194;21.006;2023-05-13T01:46:46;9.70;;;6.78;;
22223;SDS011;11281;52.194;21.006;2023-05-13T01:50:49;10.85;;;7.00;;
22223;SDS011;11281;52.194;21.006;2023-05-13T01:54:52;10.88;;;6.78;;
22223;SDS011;11281;52.194;21.006;2023-05-13T01:58:54;14.60;;;7.88;;
22223;SDS011;11281;52.194;21.006;2023-05-13T02:02:55;13.82;;;6.97;;
22223;SDS011;11281;52.194;21.006;2023-05-13T02:06:57;11.00;;;7.15;;
22223;SDS011;11281;52.194;21.006;2023-05-13T02:10:59;11.02;;;7.28;;
22223;SDS011;11281;52.194;21.006;2023-05-13T02:15:00;17.02;;;7.28;;
22223;SDS011;11281;52.194;21.006;2023-05-13T02:19:01;11.40;;;7.53;;
22223;SDS011;11281;52.194;21.006;2023-05-13T02:23:03;10.60;;;7.20;;
22223;SDS011;11281;52.194;21.006;2023-05-13T02:27:05;7.20;;;6.47;;
22223;SDS011;11281;52.194;21.006;2023-05-13T02:31:07;16.42;;;8.07;;
22223;SDS011;11281;52.194;21.006;2023-05-13T02:35:08;13.10;;;7.30;;
22223;SDS011;11281;52.194;21.006;2023-05-13T02:39:10;14.93;;;7.55;;
22223;SDS011;11281;52.194;21.006;2023-05-13T02:43:11;9.85;;;7.65;;
22223;SDS011;11281;52.194;21.006;2023-05-13T02:47:13;10.43;;;7.22;;
22223;SDS011;11281;52.194;21.006;2023-05-13T02:51:14;10.43;;;7.03;;
22223;SDS011;11281;52.194;21.006;2023-05-13T02:55:15;13.45;;;6.50;;
22223;SDS011;11281;52.194;21.006;2023-05-13T02:59:16;11.18;;;7.38;;
22223;SDS011;11281;52.194;21.006;2023-05-13T03:03:18;18.23;;;7.20;;
22223;SDS011;11281;52.194;21.006;2023-05-13T03:07:19;9.60;;;7.30;;
22223;SDS011;11281;52.194;21.006;2023-05-13T03:11:20;12.23;;;6.78;;
22223;SDS011;11281;52.194;21.006;2023-05-13T03:15:22;15.57;;;7.65;;
22223;SDS011;11281;52.194;21.006;2023-05-13T03:19:23;9.40;;;7.13;;
22223;SDS011;11281;52.194;21.006;2023-05-13T03:23:24;13.18;;;7.88;;
22223;SDS011;11281;52.194;21.006;2023-05-13T03:27:25;9.88;;;7.50;;
22223;SDS011;11281;52.194;21.006;2023-05-13T03:31:27;12.48;;;6.75;;
22223;SDS011;11281;52.194;21.006;2023-05-13T03:35:28;10.05;;;7.25;;
22223;SDS011;11281;52.194;21.006;2023-05-13T03:39:29;10.65;;;7.45;;
22223;SDS011;11281;52.194;21.006;2023-05-13T03:43:30;12.52;;;8.05;;
22223;SDS011;11281;52.194;21.006;2023-05-13T03:47:32;15.55;;;8.27;;
22223;SDS011;11281;52.194;21.006;2023-05-13T03:51:34;11.15;;;7.60;;
22223;SDS011;11281;52.194;21.006;2023-05-13T03:55:35;13.55;;;8.43;;
22223;SDS011;11281;52.194;21.006;2023-05-13T03:59:37;11.45;;;7.43;;
22223;SDS011;11281;52.194;21.006;2023-05-13T04:03:38;11.30;;;8.05;;
22223;SDS011;11281;52.194;21.006;2023-05-13T04:07:40;10.57;;;7.72;;
22223;SDS011;11281;52.194;21.006;2023-05-13T04:11:42;11.20;;;7.68;;
22223;SDS011;11281;52.194;21.006;2023-05-13T04:15:43;12.30;;;7.57;;
22223;SDS011;11281;52.194;21.006;2023-05-13T04:19:45;13.93;;;7.53;;
22223;SDS011;11281;52.194;21.006;2023-05-13T04:23:47;17.30;;;9.20;;
22223;SDS011;11281;52.194;21.006;2023-05-13T04:27:49;13.50;;;7.82;;
22223;SDS011;11281;52.194;21.006;2023-05-13T04:31:51;10.75;;;7.00;;
22223;SDS011;11281;52.194;21.006;2023-05-13T04:35:52;10.63;;;7.68;;
22223;SDS011;11281;52.194;21.006;2023-05-13T04:39:53;11.15;;;7.30;;
22223;SDS011;11281;52.194;21.006;2023-05-13T04:43:55;12.45;;;7.45;;
22223;SDS011;11281;52.194;21.006;2023-05-13T04:47:57;15.68;;;7.32;;
22223;SDS011;11281;52.194;21.006;2023-05-13T04:52:02;9.63;;;6.15;;
22223;SDS011;11281;52.194;21.006;2023-05-13T04:56:04;9.52;;;6.32;;
22223;SDS011;11281;52.194;21.006;2023-05-13T05:00:06;10.82;;;6.35;;
22223;SDS011;11281;52.194;21.006;2023-05-13T05:04:08;8.68;;;6.88;;
22223;SDS011;11281;52.194;21.006;2023-05-13T05:08:10;10.63;;;6.85;;
22223;SDS011;11281;52.194;21.006;2023-05-13T05:12:12;9.82;;;6.50;;
22223;SDS011;11281;52.194;21.006;2023-05-13T05:16:14;11.85;;;6.50;;
22223;SDS011;11281;52.194;21.006;2023-05-13T05:20:16;12.88;;;6.32;;
22223;SDS011;11281;52.194;21.006;2023-05-13T05:24:17;10.90;;;6.65;;
22223;SDS011;11281;52.194;21.006;2023-05-13T05:28:19;12.80;;;7.28;;
22223;SDS011;11281;52.194;21.006;2023-05-13T05:32:20;13.25;;;6.22;;
22223;SDS011;11281;52.194;21.006;2023-05-13T05:36:21;10.98;;;7.78;;
22223;SDS011;11281;52.194;21.006;2023-05-13T05:40:22;12.27;;;7.88;;
22223;SDS011;11281;52.194;21.006;2023-05-13T05:44:24;11.20;;;7.53;;
22223;SDS011;11281;52.194;21.006;2023-05-13T05:48:26;9.80;;;7.22;;
22223;SDS011;11281;52.194;21.006;2023-05-13T05:52:27;10.98;;;6.15;;
22223;SDS011;11281;52.194;21.006;2023-05-13T05:56:28;10.27;;;6.00;;
22223;SDS011;11281;52.194;21.006;2023-05-13T06:00:29;9.15;;;5.47;;
22223;SDS011;11281;52.194;21.006;2023-05-13T06:04:31;7.50;;;5.43;;
22223;SDS011;11281;52.194;21.006;2023-05-13T06:08:33;6.43;;;4.78;;
22223;SDS011;11281;52.194;21.006;2023-05-13T06:12:35;7.38;;;4.65;;
22223;SDS011;11281;52.194;21.006;2023-05-13T06:16:36;5.57;;;4.18;;
22223;SDS011;11281;52.194;21.006;2023-05-13T06:20:37;8.82;;;4.55;;
22223;SDS011;11281;52.194;21.006;2023-05-13T06:24:39;8.45;;;4.72;;
22223;SDS011;11281;52.194;21.006;2023-05-13T06:28:42;7.85;;;4.90;;
22223;SDS011;11281;52.194;21.006;2023-05-13T06:32:43;9.23;;;5.15;;
22223;SDS011;11281;52.194;21.006;2023-05-13T06:36:45;8.88;;;5.00;;
22223;SDS011;11281;52.194;21.006;2023-05-13T06:40:47;8.45;;;4.60;;
22223;SDS011;11281;52.194;21.006;2023-05-13T06:44:48;7.85;;;4.32;;
22223;SDS011;11281;52.194;21.006;2023-05-13T06:48:49;7.15;;;4.00;;
22223;SDS011;11281;52.194;21.006;2023-05-13T06:52:53;6.07;;;4.00;;
22223;SDS011;11281;52.194;21.006;2023-05-13T06:56:54;6.15;;;4.07;;
22223;SDS011;11281;52.194;21.006;2023-05-13T07:00:56;6.80;;;4.18;;
22223;SDS011;11281;52.194;21.006;2023-05-13T07:04:57;6.10;;;4.20;;
22223;SDS011;11281;52.194;21.006;2023-05-13T07:08:58;4.25;;;3.45;;
22223;SDS011;11281;52.194;21.006;2023-05-13T07:13:00;7.45;;;3.83;;
22223;SDS011;11281;52.194;21.006;2023-05-13T07:17:02;5.07;;;3.58;;
22223;SDS011;11281;52.194;21.006;2023-05-13T07:21:04;4.95;;;3.90;;
22223;SDS011;11281;52.194;21.006;2023-05-13T07:25:06;10.13;;;4.70;;
22223;SDS011;11281;52.194;21.006;2023-05-13T07:29:08;5.80;;;4.30;;
22223;SDS011;11281;52.194;21.006;2023-05-13T07:33:09;6.43;;;4.20;;
22223;SDS011;11281;52.194;21.006;2023-05-13T07:37:11;6.63;;;3.65;;
22223;SDS011;11281;52.194;21.006;2023-05-13T07:41:13;8.30;;;3.75;;
22223;SDS011;11281;52.194;21.006;2023-05-13T07:45:14;6.65;;;3.78;;
22223;SDS011;11281;52.194;21.006;2023-05-13T07:49:16;13.95;;;3.58;;
22223;SDS011;11281;52.194;21.006;2023-05-13T07:53:17;5.63;;;3.47;;
22223;SDS011;11281;52.194;21.006;2023-05-13T07:57:19;6.15;;;3.60;;
22223;SDS011;11281;52.194;21.006;2023-05-13T08:01:21;6.43;;;3.42;;
22223;SDS011;11281;52.194;21.006;2023-05-13T08:05:22;5.45;;;3.10;;
22223;SDS011;11281;52.194;21.006;2023-05-13T08:09:23;7.57;;;2.95;;
22223;SDS011;11281;52.194;21.006;2023-05-13T08:13:25;5.03;;;2.65;;
22223;SDS011;11281;52.194;21.006;2023-05-13T08:17:26;5.18;;;2.88;;
22223;SDS011;11281;52.194;21.006;2023-05-13T08:21:27;4.45;;;2.58;;
22223;SDS011;11281;52.194;21.006;2023-05-13T08:25:28;3.28;;;2.72;;
22223;SDS011;11281;52.194;21.006;2023-05-13T08:29:30;4.50;;;2.83;;
22223;SDS011;11281;52.194;21.006;2023-05-13T08:33:32;4.00;;;2.38;;
22223;SDS011;11281;52.194;21.006;2023-05-13T08:37:33;4.75;;;2.50;;
22223;SDS011;11281;52.194;21.006;2023-05-13T08:41:34;4.38;;;2.80;;
22223;SDS011;11281;52.194;21.006;2023-05-13T08:45:38;2.25;;;1.90;;
22223;SDS011;11281;52.194;21.006;2023-05-13T08:49:39;4.55;;;2.17;;
22223;SDS011;11281;52.194;21.006;2023-05-13T08:53:41;3.10;;;2.00;;
22223;SDS011;11281;52.194;21.006;2023-05-13T08:57:44;2.25;;;1.85;;
22223;SDS011;11281;52.194;21.006;2023-05-13T09:01:46;1.80;;;1.70;;
22223;SDS011;11281;52.194;21.006;2023-05-13T09:05:50;3.47;;;1.80;;
22223;SDS011;11281;52.194;21.006;2023-05-13T09:09:51;4.25;;;2.30;;
22223;SDS011;11281;52.194;21.006;2023-05-13T09:13:57;2.83;;;2.00;;
22223;SDS011;11281;52.194;21.006;2023-05-13T09:18:03;2.85;;;2.08;;
22223;SDS011;11281;52.194;21.006;2023-05-13T09:22:06;2.13;;;1.70;;
22223;SDS011;11281;52.194;21.006;2023-05-13T09:26:27;5.55;;;2.30;;
22223;SDS011;11281;52.194;21.006;2023-05-13T09:30:31;3.42;;;2.00;;
22223;SDS011;11281;52.194;21.006;2023-05-13T09:34:33;2.50;;;1.80;;
22223;SDS011;11281;52.194;21.006;2023-05-13T09:38:34;3.60;;;2.20;;
22223;SDS011;11281;52.194;21.006;2023-05-13T09:42:39;4.15;;;2.00;;
22223;SDS011;11281;52.194;21.006;2023-05-13T09:46:42;2.50;;;2.00;;
22223;SDS011;11281;52.194;21.006;2023-05-13T09:50:47;2.13;;;1.85;;
22223;SDS011;11281;52.194;21.006;2023-05-13T09:54:49;4.28;;;1.80;;
22223;SDS011;11281;52.194;21.006;2023-05-13T09:58:51;4.32;;;2.00;;
22223;SDS011;11281;52.194;21.006;2023-05-13T10:02:52;3.00;;;2.05;;
22223;SDS011;11281;52.194;21.006;2023-05-13T10:06:54;1.92;;;1.73;;
22223;SDS011;11281;52.194;21.006;2023-05-13T10:10:58;1.58;;;1.48;;
22223;SDS011;11281;52.194;21.006;2023-05-13T10:15:01;1.73;;;1.63;;
22223;SDS011;11281;52.194;21.006;2023-05-13T10:19:03;2.97;;;1.70;;
22223;SDS011;11281;52.194;21.006;2023-05-13T10:23:04;4.28;;;1.65;;
22223;SDS011;11281;52.194;21.006;2023-05-13T10:27:06;3.15;;;1.50;;
22223;SDS011;11281;52.194;21.006;2023-05-13T10:31:10;1.95;;;1.65;;
22223;SDS011;11281;52.194;21.006;2023-05-13T10:35:13;3.28;;;1.60;;
22223;SDS011;11281;52.194;21.006;2023-05-13T10:43:42;2.67;;;1.67;;
22223;SDS011;11281;52.194;21.006;2023-05-13T10:47:47;3.13;;;1.65;;
22223;SDS011;11281;52.194;21.006;2023-05-13T10:51:51;1.75;;;1.55;;
22223;SDS011;11281;52.194;21.006;2023-05-13T10:55:52;2.38;;;1.30;;
22223;SDS011;11281;52.194;21.006;2023-05-13T11:00:12;2.33;;;1.67;;
22223;SDS011;11281;52.194;21.006;2023-05-13T11:04:15;4.22;;;1.77;;
22223;SDS011;11281;52.194;21.006;2023-05-13T11:12:39;1.70;;;1.17;;
22223;SDS011;11281;52.194;21.006;2023-05-13T11:16:44;2.22;;;1.58;;
22223;SDS011;11281;52.194;21.006;2023-05-13T11:21:05;1.70;;;1.60;;
22223;SDS011;11281;52.194;21.006;2023-05-13T11:25:08;3.97;;;1.90;;
22223;SDS011;11281;52.194;21.006;2023-05-13T11:29:10;2.38;;;1.63;;
22223;SDS011;11281;52.194;21.006;2023-05-13T11:33:12;2.05;;;1.58;;
22223;SDS011;11281;52.194;21.006;2023-05-13T11:37:14;2.17;;;1.55;;
22223;SDS011;11281;52.194;21.006;2023-05-13T11:41:16;3.50;;;1.80;;
22223;SDS011;11281;52.194;21.006;2023-05-13T11:45:18;6.28;;;2.03;;
22223;SDS011;11281;52.194;21.006;2023-05-13T11:57:49;5.85;;;1.90;;
22223;SDS011;11281;52.194;21.006;2023-05-13T12:01:57;3.63;;;1.73;;
22223;SDS011;11281;52.194;21.006;2023-05-13T12:06:00;4.32;;;1.60;;
22223;SDS011;11281;52.194;21.006;2023-05-13T12:10:02;2.78;;;1.50;;
22223;SDS011;11281;52.194;21.006;2023-05-13T12:14:05;4.60;;;1.70;;
22223;SDS011;11281;52.194;21.006;2023-05-13T12:18:07;3.53;;;1.80;;
22223;SDS011;11281;52.194;21.006;2023-05-13T12:22:08;3.15;;;1.38;;
22223;SDS011;11281;52.194;21.006;2023-05-13T12:26:10;2.70;;;1.60;;
22223;SDS011;11281;52.194;21.006;2023-05-13T12:30:14;2.97;;;1.50;;
22223;SDS011;11281;52.194;21.006;2023-05-13T12:34:28;1.60;;;1.20;;
22223;SDS011;11281;52.194;21.006;2023-05-13T12:38:34;1.42;;;1.30;;
22223;SDS011;11281;52.194;21.006;2023-05-13T12:42:35;2.08;;;1.40;;
22223;SDS011;11281;52.194;21.006;2023-05-13T12:46:36;5.68;;;1.40;;
22223;SDS011;11281;52.194;21.006;2023-05-13T12:50:39;3.70;;;1.50;;
22223;SDS011;11281;52.194;21.006;2023-05-13T12:54:40;2.10;;;1.30;;
22223;SDS011;11281;52.194;21.006;2023-05-13T12:58:42;2.92;;;1.50;;
22223;SDS011;11281;52.194;21.006;2023-05-13T13:02:43;2.75;;;1.45;;
22223;SDS011;11281;52.194;21.006;2023-05-13T13:06:45;1.67;;;1.30;;
22223;SDS011;11281;52.194;21.006;2023-05-13T13:10:46;2.58;;;1.70;;
22223;SDS011;11281;52.194;21.006;2023-05-13T13:14:47;2.75;;;1.20;;
22223;SDS011;11281;52.194;21.006;2023-05-13T13:18:49;1.98;;;1.50;;
22223;SDS011;11281;52.194;21.006;2023-05-13T13:22:52;1.65;;;1.20;;
22223;SDS011;11281;52.194;21.006;2023-05-13T13:26:54;1.48;;;1.38;;
22223;SDS011;11281;52.194;21.006;2023-05-13T13:30:55;2.97;;;1.30;;
22223;SDS011;11281;52.194;21.006;2023-05-13T13:34:57;2.00;;;1.65;;
22223;SDS011;11281;52.194;21.006;2023-05-13T13:38:58;1.38;;;1.27;;
22223;SDS011;11281;52.194;21.006;2023-05-13T13:42:59;1.45;;;1.35;;
22223;SDS011;11281;52.194;21.006;2023-05-13T13:47:01;1.27;;;1.17;;
22223;SDS011;11281;52.194;21.006;2023-05-13T13:51:02;1.85;;;1.67;;
22223;SDS011;11281;52.194;21.006;2023-05-13T13:55:04;1.92;;;1.40;;
22223;SDS011;11281;52.194;21.006;2023-05-13T13:59:06;3.75;;;1.50;;
22223;SDS011;11281;52.194;21.006;2023-05-13T14:03:07;3.80;;;1.38;;
22223;SDS011;11281;52.194;21.006;2023-05-13T14:07:08;3.58;;;1.40;;
22223;SDS011;11281;52.194;21.006;2023-05-13T14:11:09;1.55;;;1.30;;
22223;SDS011;11281;52.194;21.006;2023-05-13T14:15:11;2.25;;;1.10;;
22223;SDS011;11281;52.194;21.006;2023-05-13T14:19:12;2.28;;;1.45;;
22223;SDS011;11281;52.194;21.006;2023-05-13T14:23:13;1.60;;;1.30;;
22223;SDS011;11281;52.194;21.006;2023-05-13T14:27:15;2.95;;;1.10;;
22223;SDS011;11281;52.194;21.006;2023-05-13T14:31:17;1.77;;;1.40;;
22223;SDS011;11281;52.194;21.006;2023-05-13T14:35:18;2.92;;;2.13;;
22223;SDS011;11281;52.194;21.006;2023-05-13T14:39:20;1.98;;;1.38;;
22223;SDS011;11281;52.194;21.006;2023-05-13T14:43:22;1.85;;;1.25;;
22223;SDS011;11281;52.194;21.006;2023-05-13T14:47:23;2.05;;;1.40;;
22223;SDS011;11281;52.194;21.006;2023-05-13T14:51:25;1.40;;;1.30;;
22223;SDS011;11281;52.194;21.006;2023-05-13T14:55:27;3.92;;;1.48;;
22223;SDS011;11281;52.194;21.006;2023-05-13T14:59:28;1.70;;;1.50;;
22223;SDS011;11281;52.194;21.006;2023-05-13T15:03:30;2.97;;;1.55;;
22223;SDS011;11281;52.194;21.006;2023-05-13T15:07:32;2.40;;;1.40;;
22223;SDS011;11281;52.194;21.006;2023-05-13T15:11:33;5.05;;;1.48;;
22223;SDS011;11281;52.194;21.006;2023-05-13T15:15:35;1.92;;;1.30;;
22223;SDS011;11281;52.194;21.006;2023-05-13T15:19:39;1.92;;;1.33;;
22223;SDS011;11281;52.194;21.006;2023-05-13T15:23:40;2.03;;;1.40;;
22223;SDS011;11281;52.194;21.006;2023-05-13T15:27:42;2.03;;;1.45;;
22223;SDS011;11281;52.194;21.006;2023-05-13T15:31:44;4.32;;;1.77;;
22223;SDS011;11281;52.194;21.006;2023-05-13T15:35:48;2.45;;;1.60;;
22223;SDS011;11281;52.194;21.006;2023-05-13T15:39:50;1.52;;;1.42;;
22223;SDS011;11281;52.194;21.006;2023-05-13T15:43:52;2.10;;;1.42;;
22223;SDS011;11281;52.194;21.006;2023-05-13T15:47:54;2.47;;;1.38;;
22223;SDS011;11281;52.194;21.006;2023-05-13T15:51:55;3.92;;;1.83;;
22223;SDS011;11281;52.194;21.006;2023-05-13T15:55:57;6.15;;;3.42;;
22223;SDS011;11281;52.194;21.006;2023-05-13T15:59:58;10.70;;;4.00;;
22223;SDS011;11281;52.194;21.006;2023-05-13T16:04:00;4.47;;;2.30;;
22223;SDS011;11281;52.194;21.006;2023-05-13T16:08:01;2.72;;;1.85;;
22223;SDS011;11281;52.194;21.006;2023-05-13T16:12:04;3.30;;;1.70;;
22223;SDS011;11281;52.194;21.006;2023-05-13T16:16:05;4.13;;;1.50;;
22223;SDS011;11281;52.194;21.006;2023-05-13T16:20:07;3.05;;;1.58;;
22223;SDS011;11281;52.194;21.006;2023-05-13T16:24:09;2.75;;;1.80;;
22223;SDS011;11281;52.194;21.006;2023-05-13T16:28:11;4.43;;;1.77;;
22223;SDS011;11281;52.194;21.006;2023-05-13T16:32:12;4.00;;;1.60;;
22223;SDS011;11281;52.194;21.006;2023-05-13T16:36:13;2.33;;;1.60;;
22223;SDS011;11281;52.194;21.006;2023-05-13T16:40:15;2.78;;;1.63;;
22223;SDS011;11281;52.194;21.006;2023-05-13T16:44:17;4.20;;;1.70;;
22223;SDS011;11281;52.194;21.006;2023-05-13T16:48:19;3.72;;;1.80;;
22223;SDS011;11281;52.194;21.006;2023-05-13T16:52:21;2.92;;;1.73;;
22223;SDS011;11281;52.194;21.006;2023-05-13T16:56:23;3.47;;;1.75;;
22223;SDS011;11281;52.194;21.006;2023-05-13T17:00:26;3.90;;;2.00;;
22223;SDS011;11281;52.194;21.006;2023-05-13T17:04:27;3.63;;;2.40;;
22223;SDS011;11281;52.194;21.006;2023-05-13T17:08:28;7.97;;;3.97;;
22223;SDS011;11281;52.194;21.006;2023-05-13T17:12:30;7.93;;;4.43;;
22223;SDS011;11281;52.194;21.006;2023-05-13T17:16:32;5.53;;;3.30;;
22223;SDS011;11281;52.194;21.006;2023-05-13T17:20:34;6.80;;;2.83;;
22223;SDS011;11281;52.194;21.006;2023-05-13T17:24:35;7.93;;;3.15;;
22223;SDS011;11281;52.194;21.006;2023-05-13T17:28:38;9.10;;;3.00;;
22223;SDS011;11281;52.194;21.006;2023-05-13T17:32:40;8.95;;;3.40;;
22223;SDS011;11281;52.194;21.006;2023-05-13T17:36:42;8.30;;;4.00;;
22223;SDS011;11281;52.194;21.006;2023-05-13T17:40:43;6.85;;;4.20;;
22223;SDS011;11281;52.194;21.006;2023-05-13T17:44:44;8.00;;;3.85;;
22223;SDS011;11281;52.194;21.006;2023-05-13T17:48:46;6.85;;;3.05;;
22223;SDS011;11281;52.194;21.006;2023-05-13T17:52:48;5.80;;;2.95;;
22223;SDS011;11281;52.194;21.006;2023-05-13T17:56:49;4.80;;;2.80;;
22223;SDS011;11281;52.194;21.006;2023-05-13T18:00:52;3.47;;;2.55;;
22223;SDS011;11281;52.194;21.006;2023-05-13T18:04:53;5.45;;;3.28;;
22223;SDS011;11281;52.194;21.006;2023-05-13T18:08:54;8.95;;;3.53;;
22223;SDS011;11281;52.194;21.006;2023-05-13T18:12:56;4.93;;;3.20;;
22223;SDS011;11281;52.194;21.006;2023-05-13T18:16:58;7.05;;;3.65;;
22223;SDS011;11281;52.194;21.006;2023-05-13T18:21:00;6.80;;;3.83;;
22223;SDS011;11281;52.194;21.006;2023-05-13T18:25:01;7.13;;;4.47;;
22223;SDS011;11281;52.194;21.006;2023-05-13T18:29:02;11.07;;;5.05;;
22223;SDS011;11281;52.194;21.006;2023-05-13T18:33:03;14.93;;;6.10;;
22223;SDS011;11281;52.194;21.006;2023-05-13T18:37:05;12.85;;;5.82;;
22223;SDS011;11281;52.194;21.006;2023-05-13T18:41:06;12.25;;;6.50;;
22223;SDS011;11281;52.194;21.006;2023-05-13T18:45:08;12.38;;;6.47;;
22223;SDS011;11281;52.194;21.006;2023-05-13T18:49:09;12.05;;;6.18;;
22223;SDS011;11281;52.194;21.006;2023-05-13T18:53:11;13.05;;;5.63;;
22223;SDS011;11281;52.194;21.006;2023-05-13T18:57:13;10.32;;;6.03;;
22223;SDS011;11281;52.194;21.006;2023-05-13T19:01:15;7.43;;;4.97;;
22223;SDS011;11281;52.194;21.006;2023-05-13T19:05:16;10.45;;;6.28;;
22223;SDS011;11281;52.194;21.006;2023-05-13T19:09:18;14.85;;;7.03;;
22223;SDS011;11281;52.194;21.006;2023-05-13T19:13:21;13.18;;;6.75;;
22223;SDS011;11281;52.194;21.006;2023-05-13T19:17:22;14.73;;;7.28;;
22223;SDS011;11281;52.194;21.006;2023-05-13T19:21:24;13.88;;;7.22;;
22223;SDS011;11281;52.194;21.006;2023-05-13T19:25:26;12.27;;;7.13;;
22223;SDS011;11281;52.194;21.006;2023-05-13T19:29:27;14.07;;;8.90;;
22223;SDS011;11281;52.194;21.006;2023-05-13T19:33:28;17.67;;;9.40;;
22223;SDS011;11281;52.194;21.006;2023-05-13T19:37:30;20.27;;;10.90;;
22223;SDS011;11281;52.194;21.006;2023-05-13T19:41:31;17.73;;;11.05;;
22223;SDS011;11281;52.194;21.006;2023-05-13T19:45:34;27.55;;;15.38;;
22223;SDS011;11281;52.194;21.006;2023-05-13T19:49:36;36.20;;;18.67;;
22223;SDS011;11281;52.194;21.006;2023-05-13T19:53:37;34.85;;;19.80;;
22223;SDS011;11281;52.194;21.006;2023-05-13T19:57:39;32.28;;;18.48;;
22223;SDS011;11281;52.194;21.006;2023-05-13T20:01:41;28.77;;;18.63;;
22223;SDS011;11281;52.194;21.006;2023-05-13T20:05:43;31.63;;;18.67;;
22223;SDS011;11281;52.194;21.006;2023-05-13T20:09:46;31.50;;;18.70;;
22223;SDS011;11281;52.194;21.006;2023-05-13T20:13:47;29.98;;;17.77;;
22223;SDS011;11281;52.194;21.006;2023-05-13T20:17:48;24.15;;;16.23;;
22223;SDS011;11281;52.194;21.006;2023-05-13T20:21:50;25.98;;;15.18;;
22223;SDS011;11281;52.194;21.006;2023-05-13T20:25:51;23.88;;;14.98;;
22223;SDS011;11281;52.194;21.006;2023-05-13T20:29:57;26.52;;;14.80;;
22223;SDS011;11281;52.194;21.006;2023-05-13T20:33:59;20.77;;;14.02;;
22223;SDS011;11281;52.194;21.006;2023-05-13T20:38:03;22.85;;;13.93;;
22223;SDS011;11281;52.194;21.006;2023-05-13T20:42:05;23.02;;;13.32;;
22223;SDS011;11281;52.194;21.006;2023-05-13T20:46:06;21.48;;;13.02;;
22223;SDS011;11281;52.194;21.006;2023-05-13T20:50:08;19.02;;;13.02;;
22223;SDS011;11281;52.194;21.006;2023-05-13T20:54:10;19.25;;;13.52;;
22223;SDS011;11281;52.194;21.006;2023-05-13T20:58:12;22.05;;;14.30;;
22223;SDS011;11281;52.194;21.006;2023-05-13T21:02:13;36.90;;;18.75;;
22223;SDS011;11281;52.194;21.006;2023-05-13T21:06:15;31.30;;;18.80;;
22223;SDS011;11281;52.194;21.006;2023-05-13T21:10:16;38.55;;;18.90;;
22223;SDS011;11281;52.194;21.006;2023-05-13T21:14:17;37.22;;;18.33;;
22223;SDS011;11281;52.194;21.006;2023-05-13T21:18:18;48.88;;;21.67;;
22223;SDS011;11281;52.194;21.006;2023-05-13T21:22:20;53.03;;;25.15;;
22223;SDS011;11281;52.194;21.006;2023-05-13T21:26:23;65.53;;;28.45;;
22223;SDS011;11281;52.194;21.006;2023-05-13T21:30:24;75.72;;;31.63;;
22223;SDS011;11281;52.194;21.006;2023-05-13T21:34:26;68.90;;;29.35;;
22223;SDS011;11281;52.194;21.006;2023-05-13T21:38:28;63.92;;;27.38;;
22223;SDS011;11281;52.194;21.006;2023-05-13T21:42:29;59.10;;;24.85;;
22223;SDS011;11281;52.194;21.006;2023-05-13T21:46:30;65.30;;;27.00;;
22223;SDS011;11281;52.194;21.006;2023-05-13T21:50:32;63.17;;;26.80;;
22223;SDS011;11281;52.194;21.006;2023-05-13T21:54:34;56.85;;;26.48;;
22223;SDS011;11281;52.194;21.006;2023-05-13T21:58:36;47.88;;;24.45;;
22223;SDS011;11281;52.194;21.006;2023-05-13T22:02:37;50.55;;;23.15;;
22223;SDS011;11281;52.194;21.006;2023-05-13T22:06:38;58.15;;;23.92;;
22223;SDS011;11281;52.194;21.006;2023-05-13T22:10:39;52.60;;;23.02;;
22223;SDS011;11281;52.194;21.006;2023-05-13T22:14:41;55.85;;;26.48;;
22223;SDS011;11281;52.194;21.006;2023-05-13T22:18:43;56.60;;;26.50;;
22223;SDS011;11281;52.194;21.006;2023-05-13T22:22:45;51.45;;;25.35;;
22223;SDS011;11281;52.194;21.006;2023-05-13T22:26:46;61.15;;;26.90;;
22223;SDS011;11281;52.194;21.006;2023-05-13T22:30:49;49.83;;;23.27;;
22223;SDS011;11281;52.194;21.006;2023-05-13T22:34:51;48.17;;;21.60;;
22223;SDS011;11281;52.194;21.006;2023-05-13T22:38:52;50.30;;;20.95;;
22223;SDS011;11281;52.194;21.006;2023-05-13T22:42:53;35.47;;;17.95;;
22223;SDS011;11281;52.194;21.006;2023-05-13T22:46:55;30.33;;;16.08;;
22223;SDS011;11281;52.194;21.006;2023-05-13T22:50:57;23.88;;;12.40;;
22223;SDS011;11281;52.194;21.006;2023-05-13T22:54:59;31.90;;;13.48;;
22223;SDS011;11281;52.194;21.006;2023-05-13T22:59:01;17.95;;;10.55;;
22223;SDS011;11281;52.194;21.006;2023-05-13T23:03:02;17.85;;;10.73;;
22223;SDS011;11281;52.194;21.006;2023-05-13T23:07:03;18.52;;;10.00;;
22223;SDS011;11281;52.194;21.006;2023-05-13T23:11:05;19.00;;;9.77;;
22223;SDS011;11281;52.194;21.006;2023-05-13T23:15:07;17.45;;;9.82;;
22223;SDS011;11281;52.194;21.006;2023-05-13T23:19:11;15.38;;;10.05;;
22223;SDS011;11281;52.194;21.006;2023-05-13T23:23:12;15.38;;;9.15;;
22223;SDS011;11281;52.194;21.006;2023-05-13T23:27:14;17.85;;;9.15;;
22223;SDS011;11281;52.194;21.006;2023-05-13T23:31:16;14.23;;;9.20;;
22223;SDS011;11281;52.194;21.006;2023-05-13T23:35:18;16.10;;;9.55;;
22223;SDS011;11281;52.194;21.006;2023-05-13T23:39:19;13.15;;;8.38;;
22223;SDS011;11281;52.194;21.006;2023-05-13T23:43:20;11.13;;;8.32;;
22223;SDS011;11281;52.194;21.006;2023-05-13T23:47:22;14.73;;;8.82;;
22223;SDS011;11281;52.194;21.006;2023-05-13T23:51:23;12.63;;;7.95;;
22223;SDS011;11281;52.194;21.006;2023-05-13T23:55:24;19.25;;;9.25;;
22223;SDS011;11281;52.194;21.006;2023-05-13T23:59:26;14.10;;;8.10;;
